| time (UTC) | temp F | wind direction | speed MPH | gust MPH | rain 1hr in | rain 24hr in | rain mn in | humidity % | barometer mb |
| 20260906230630 | 67 | 284 | 4.0 | 8.0 | 0.00 | 0.00 | 0.00 | 39 | 1019.7 |
| 20260906225635 | 67 | 306 | 4.0 | 10.0 | 0.00 | 0.00 | 0.00 | 38 | 1019.6 |
| 20260906224622 | 68 | 264 | 5.0 | 10.0 | 0.00 | 0.00 | 0.00 | 37 | 1019.7 |
| 20260906223626 | 68 | 292 | 5.0 | 12.0 | 0.00 | 0.00 | 0.00 | 36 | 1019.7 |
| 20260906222629 | 68 | 312 | 2.0 | 11.0 | 0.00 | 0.00 | 0.00 | 35 | 1019.8 |
| 20260906221633 | 68 | 279 | 6.0 | 12.0 | 0.00 | 0.00 | 0.00 | 34 | 1019.9 |
| 20260906220621 | 68 | 288 | 7.0 | 11.0 | 0.00 | 0.00 | 0.00 | 34 | 1020.1 |
| 20260906215627 | 68 | 267 | 7.0 | 11.0 | 0.00 | 0.00 | 0.00 | 33 | 1020.0 |
| 20260906214651 | 68 | 178 | 4.0 | 11.0 | 0.00 | 0.00 | 0.00 | 32 | 1020.2 |
| 20260906213632 | 68 | 294 | 5.0 | 12.0 | 0.00 | 0.00 | 0.00 | 34 | 1020.0 |
| 20260906212635 | 68 | 282 | 6.0 | 14.0 | 0.00 | 0.00 | 0.00 | 33 | 1020.0 |
| 20260906211621 | 68 | 285 | 5.0 | 11.0 | 0.00 | 0.00 | 0.00 | 33 | 1020.2 |
| 20260906210626 | 69 | 315 | 6.0 | 10.0 | 0.00 | 0.00 | 0.00 | 32 | 1020.2 |
| 20260906205632 | 68 | 232 | 5.0 | 10.0 | 0.00 | 0.00 | 0.00 | 32 | 1020.5 |
| 20260906204635 | 68 | 252 | 4.0 | 13.0 | 0.00 | 0.00 | 0.00 | 31 | 1020.5 |
| 20260906203623 | 70 | 252 | 6.0 | 12.0 | 0.00 | 0.00 | 0.00 | 29 | 1020.5 |
| 20260906202625 | 70 | 294 | 5.0 | 12.0 | 0.00 | 0.00 | 0.00 | 29 | 1020.5 |
| 20260906201629 | 69 | 233 | 8.0 | 13.0 | 0.00 | 0.00 | 0.00 | 29 | 1020.6 |
| 20260906200633 | 68 | 294 | 6.0 | 14.0 | 0.00 | 0.00 | 0.00 | 29 | 1020.7 |
| 20260906195638 | 69 | 238 | 8.0 | 19.0 | 0.00 | 0.00 | 0.00 | 28 | 1021.0 |
| 20260906194625 | 69 | 300 | 7.0 | 14.0 | 0.00 | 0.00 | 0.00 | 26 | 1020.8 |
| 20260906193629 | 69 | 226 | 2.0 | 14.0 | 0.00 | 0.00 | 0.00 | 26 | 1020.8 |
| 20260906192633 | 70 | 185 | 1.0 | 12.0 | 0.00 | 0.00 | 0.00 | 27 | 1020.8 |
| 20260906191634 | 69 | 267 | 2.0 | 12.0 | 0.00 | 0.00 | 0.00 | 26 | 1021.1 |
| 20260906190621 | 69 | 261 | 1.0 | 10.0 | 0.00 | 0.00 | 0.00 | 26 | 1020.8 |
| 20260906185628 | 69 | 254 | 6.0 | 11.0 | 0.00 | 0.00 | 0.00 | 26 | 1021.2 |
| 20260906184631 | 68 | 236 | 5.0 | 10.0 | 0.00 | 0.00 | 0.00 | 28 | 1021.2 |
| 20260906183634 | 69 | 202 | 4.0 | 15.0 | 0.00 | 0.00 | 0.00 | 27 | 1021.4 |
| 20260906182617 | 68 | 180 | 5.0 | 13.0 | 0.00 | 0.00 | 0.00 | 27 | 1021.5 |
| 20260906181624 | 67 | 206 | 7.0 | 13.0 | 0.00 | 0.00 | 0.00 | 28 | 1021.9 |
| 20260906180644 | 68 | 221 | 8.0 | 15.0 | 0.00 | 0.00 | 0.00 | 27 | 1021.9 |
| 20260906175632 | 68 | 103 | 2.0 | 6.0 | 0.00 | 0.00 | 0.00 | 31 | 1021.8 |
| 20260906174635 | 67 | 211 | 10.0 | 17.0 | 0.00 | 0.00 | 0.00 | 31 | 1022.3 |
| 20260906173617 | 66 | 244 | 5.0 | 13.0 | 0.00 | 0.00 | 0.00 | 31 | 1022.3 |
| 20260906172620 | 66 | 171 | 3.0 | 12.0 | 0.00 | 0.00 | 0.00 | 32 | 1022.4 |
| 20260906171626 | 66 | 231 | 2.0 | 9.0 | 0.00 | 0.00 | 0.00 | 32 | 1022.3 |
| 20260906170631 | 66 | 253 | 6.0 | 10.0 | 0.00 | 0.00 | 0.00 | 33 | 1022.4 |
| 20260906165617 | 65 | 205 | 3.0 | 8.0 | 0.00 | 0.00 | 0.00 | 33 | 1022.4 |
| 20260906164620 | 64 | 194 | 4.0 | 9.0 | 0.00 | 0.00 | 0.00 | 34 | 1022.5 |
| 20260906163627 | 64 | 224 | 5.0 | 12.0 | 0.00 | 0.00 | 0.00 | 35 | 1022.6 |
| 20260906162630 | 64 | 167 | 6.0 | 13.0 | 0.00 | 0.00 | 0.00 | 34 | 1022.7 |
| 20260906161633 | 64 | 245 | 6.0 | 10.0 | 0.00 | 0.00 | 0.00 | 34 | 1022.6 |
| 20260906160617 | 64 | 185 | 5.0 | 10.0 | 0.00 | 0.00 | 0.00 | 34 | 1022.6 |
| 20260906155642 | 63 | 192 | 4.0 | 11.0 | 0.00 | 0.00 | 0.00 | 34 | 1022.6 |
| 20260906154627 | 63 | 174 | 4.0 | 8.0 | 0.00 | 0.00 | 0.00 | 35 | 1022.6 |
| 20260906153630 | 62 | 173 | 4.0 | 10.0 | 0.00 | 0.00 | 0.00 | 36 | 1022.6 |
| 20260906152632 | 61 | 181 | 3.0 | 11.0 | 0.00 | 0.00 | 0.00 | 37 | 1022.7 |
| 20260906151656 | 58 | 178 | 6.0 | 14.0 | 0.00 | 0.00 | 0.00 | 41 | 1022.6 |
| 20260906150624 | 52 | 32 | 2.0 | 4.0 | 0.00 | 0.00 | 0.00 | 54 | 1022.5 |
| 20260906145630 | 49 | 207 | 1.0 | 3.0 | 0.00 | 0.00 | 0.00 | 57 | 1022.6 |
| 20260906144631 | 47 | 204 | 1.0 | 4.0 | 0.00 | 0.00 | 0.00 | 61 | 1022.6 |
| 20260906143634 | 45 | 144 | 0.0 | 3.0 | 0.00 | 0.00 | 0.00 | 62 | 1022.7 |
| 20260906142616 | 44 | 140 | 0.0 | 3.0 | 0.00 | 0.00 | 0.00 | 64 | 1022.7 |
| 20260906141644 | 42 | 140 | 1.0 | 2.0 | 0.00 | 0.00 | 0.00 | 66 | 1022.6 |
| 20260906140626 | 41 | 140 | 0.0 | 3.0 | 0.00 | 0.00 | 0.00 | 66 | 1022.7 |
| 20260906135650 | 41 | 140 | 0.0 | 2.0 | 0.00 | 0.00 | 0.00 | 66 | 1022.6 |
| 20260906134654 | 41 | 140 | 0.0 | 1.0 | 0.00 | 0.00 | 0.00 | 64 | 1022.5 |
| 20260906133634 | 41 | 140 | 0.0 | 2.0 | 0.00 | 0.00 | 0.00 | 63 | 1022.4 |
| 20260906132622 | 40 | 140 | 1.0 | 2.0 | 0.00 | 0.00 | 0.00 | 64 | 1022.4 |
| 20260906131623 | 40 | 140 | 0.0 | 2.0 | 0.00 | 0.00 | 0.00 | 64 | 1022.2 |
| 20260906130625 | 40 | 140 | 0.0 | 1.0 | 0.00 | 0.00 | 0.00 | 64 | 1022.3 |
| 20260906125630 | 41 | 140 | 0.0 | 1.0 | 0.00 | 0.00 | 0.00 | 61 | 1022.2 |
| 20260906124634 | 41 | 140 | 0.0 | 0.0 | 0.00 | 0.00 | 0.00 | 61 | 1022.2 |
| 20260906123622 | 42 | 140 | 0.0 | 0.0 | 0.00 | 0.00 | 0.00 | 60 | 1022.2 |
| 20260906122645 | 42 | 140 | 0.0 | 1.0 | 0.00 | 0.00 | 0.00 | 59 | 1022.2 |
| 20260906121647 | 43 | 140 | 0.0 | 1.0 | 0.00 | 0.00 | 0.00 | 57 | 1022.3 |
| 20260906120623 | 43 | 140 | 0.0 | 1.0 | 0.00 | 0.00 | 0.00 | 56 | 1022.2 |
| 20260906115626 | 43 | 140 | 0.0 | 1.0 | 0.00 | 0.00 | 0.00 | 55 | 1022.3 |
| 20260906114630 | 43 | 140 | 1.0 | 2.0 | 0.00 | 0.00 | 0.00 | 55 | 1022.3 |
| 20260906113617 | 43 | 140 | 0.0 | 1.0 | 0.00 | 0.00 | 0.00 | 56 | 1022.3 |
| 20260906112618 | 43 | 140 | 0.0 | 1.0 | 0.00 | 0.00 | 0.00 | 56 | 1022.2 |
| 20260906111621 | 43 | 140 | 0.0 | 2.0 | 0.00 | 0.00 | 0.00 | 55 | 1022.2 |
| 20260906110625 | 43 | 140 | 0.0 | 2.0 | 0.00 | 0.00 | 0.00 | 55 | 1022.4 |
| 20260906105630 | 43 | 140 | 1.0 | 2.0 | 0.00 | 0.00 | 0.00 | 56 | 1022.4 |
| 20260906104618 | 44 | 140 | 0.0 | 2.0 | 0.00 | 0.00 | 0.00 | 56 | 1022.3 |
| 20260906103619 | 44 | 140 | 1.0 | 2.0 | 0.00 | 0.00 | 0.00 | 54 | 1022.2 |
| 20260906102621 | 44 | 140 | 1.0 | 3.0 | 0.00 | 0.00 | 0.00 | 53 | 1022.2 |
| 20260906101625 | 44 | 140 | 2.0 | 3.0 | 0.00 | 0.00 | 0.00 | 54 | 1022.2 |
| 20260906100633 | 44 | 140 | 1.0 | 2.0 | 0.00 | 0.00 | 0.00 | 56 | 1022.2 |
| 20260906095617 | 44 | 140 | 1.0 | 2.0 | 0.00 | 0.00 | 0.00 | 55 | 1022.1 |
| 20260906094621 | 44 | 140 | 1.0 | 2.0 | 0.00 | 0.00 | 0.00 | 56 | 1022.1 |
| 20260906093624 | 43 | 140 | 1.0 | 2.0 | 0.00 | 0.00 | 0.00 | 57 | 1021.9 |
| 20260906092632 | 43 | 140 | 1.0 | 2.0 | 0.00 | 0.00 | 0.00 | 58 | 1021.9 |
| 20260906091635 | 43 | 140 | 1.0 | 3.0 | 0.00 | 0.00 | 0.00 | 59 | 1022.0 |
| 20260906090618 | 43 | 140 | 0.0 | 0.0 | 0.00 | 0.00 | 0.00 | 60 | 1022.0 |
| 20260906085626 | 43 | 140 | 0.0 | 0.0 | 0.00 | 0.00 | 0.00 | 60 | 1022.0 |
| 20260906084629 | 43 | 140 | 0.0 | 0.0 | 0.00 | 0.00 | 0.00 | 59 | 1022.0 |
| 20260906083635 | 44 | 140 | 0.0 | 0.0 | 0.00 | 0.00 | 0.00 | 58 | 1022.0 |
| 20260906082641 | 44 | 140 | 0.0 | 0.0 | 0.00 | 0.00 | 0.00 | 57 | 1022.1 |
| 20260906081623 | 44 | 140 | 0.0 | 0.0 | 0.00 | 0.00 | 0.00 | 57 | 1022.2 |
| 20260906080626 | 45 | 140 | 0.0 | 0.0 | 0.00 | 0.00 | 0.00 | 56 | 1022.2 |
| 20260906075652 | 45 | 140 | 0.0 | 1.0 | 0.00 | 0.00 | 0.00 | 55 | 1022.2 |
| 20260906074635 | 46 | 140 | 0.0 | 2.0 | 0.00 | 0.00 | 0.00 | 55 | 1022.3 |
| 20260906073618 | 46 | 140 | 0.0 | 1.0 | 0.00 | 0.00 | 0.00 | 53 | 1022.2 |
| 20260906072642 | 47 | 140 | 0.0 | 1.0 | 0.00 | 0.00 | 0.00 | 52 | 1022.2 |
| 20260906071625 | 47 | 140 | 0.0 | 1.0 | 0.00 | 0.00 | 0.00 | 53 | 1022.2 |
| 20260906070654 | 47 | 140 | 0.0 | 3.0 | 0.00 | 0.00 | 0.00 | 51 | 1022.2 |
| 20260906065617 | 47 | 140 | 0.0 | 1.0 | 0.00 | 0.00 | 0.00 | 50 | 1022.3 |
| 20260906064620 | 48 | 140 | 1.0 | 1.0 | 0.00 | 0.00 | 0.00 | 50 | 1022.2 |
| 20260906063624 | 48 | 140 | 0.0 | 0.0 | 0.00 | 0.00 | 0.00 | 50 | 1022.2 |
| 20260906062630 | 48 | 140 | 1.0 | 2.0 | 0.00 | 0.00 | 0.00 | 50 | 1022.2 |
| 20260906061636 | 48 | 140 | 0.0 | 2.0 | 0.00 | 0.00 | 0.00 | 49 | 1022.0 |
| 20260906060633 | 49 | 140 | 0.0 | 1.0 | 0.00 | 0.00 | 0.00 | 47 | 1022.2 |
| 20260906055639 | 49 | 140 | 1.0 | 2.0 | 0.00 | 0.00 | 0.00 | 47 | 1022.1 |
| 20260906054620 | 49 | 140 | 0.0 | 2.0 | 0.00 | 0.00 | 0.00 | 47 | 1022.2 |
| 20260906053624 | 50 | 140 | 0.0 | 1.0 | 0.00 | 0.00 | 0.00 | 47 | 1022.1 |
| 20260906052648 | 50 | 140 | 0.0 | 3.0 | 0.00 | 0.00 | 0.00 | 46 | 1022.1 |
| 20260906051633 | 50 | 140 | 1.0 | 4.0 | 0.00 | 0.00 | 0.00 | 45 | 1022.2 |
| 20260906050618 | 51 | 140 | 2.0 | 3.0 | 0.00 | 0.00 | 0.00 | 45 | 1022.2 |
| 20260906045624 | 51 | 140 | 1.0 | 3.0 | 0.00 | 0.00 | 0.00 | 45 | 1022.2 |
| 20260906044628 | 51 | 140 | 2.0 | 3.0 | 0.00 | 0.00 | 0.00 | 44 | 1022.2 |
| 20260906043635 | 51 | 215 | 1.0 | 3.0 | 0.00 | 0.00 | 0.00 | 45 | 1022.3 |
| 20260906042618 | 51 | 215 | 1.0 | 3.0 | 0.00 | 0.00 | 0.00 | 45 | 1022.4 |
| 20260906041623 | 51 | 215 | 1.0 | 2.0 | 0.00 | 0.00 | 0.00 | 45 | 1022.2 |
| 20260906040625 | 52 | 215 | 1.0 | 3.0 | 0.00 | 0.00 | 0.00 | 44 | 1022.2 |
| 20260906035630 | 52 | 216 | 0.0 | 1.0 | 0.00 | 0.00 | 0.00 | 44 | 1022.2 |
| 20260906034618 | 53 | 216 | 1.0 | 1.0 | 0.00 | 0.00 | 0.00 | 43 | 1022.2 |
| 20260906033642 | 54 | 216 | 1.0 | 2.0 | 0.00 | 0.00 | 0.00 | 41 | 1022.2 |
| 20260906032626 | 55 | 216 | 0.0 | 1.0 | 0.00 | 0.00 | 0.00 | 40 | 1022.1 |
| 20260906031629 | 56 | 216 | 0.0 | 1.0 | 0.00 | 0.00 | 0.00 | 40 | 1022.0 |
| 20260906030651 | 56 | 216 | 0.0 | 1.0 | 0.00 | 0.00 | 0.00 | 38 | 1022.0 |
| 20260906025618 | 58 | 216 | 0.0 | 1.0 | 0.00 | 0.00 | 0.00 | 36 | 1021.9 |
| 20260906024622 | 58 | 216 | 0.0 | 1.0 | 0.00 | 0.00 | 0.00 | 36 | 1021.8 |
| 20260906023644 | 59 | 216 | 0.0 | 1.0 | 0.00 | 0.00 | 0.00 | 33 | 1021.7 |
| 20260906022627 | 60 | 216 | 0.0 | 1.0 | 0.00 | 0.00 | 0.00 | 31 | 1021.6 |
| 20260906021634 | 62 | 216 | 0.0 | 1.0 | 0.00 | 0.00 | 0.00 | 30 | 1021.6 |
| 20260906020617 | 63 | 216 | 0.0 | 1.0 | 0.00 | 0.00 | 0.00 | 29 | 1021.7 |
| 20260906015623 | 65 | 216 | 0.0 | 2.0 | 0.00 | 0.00 | 0.00 | 27 | 1021.7 |
| 20260906014647 | 67 | 216 | 1.0 | 1.0 | 0.00 | 0.00 | 0.00 | 26 | 1021.7 |
| 20260906013628 | 68 | 216 | 1.0 | 4.0 | 0.00 | 0.00 | 0.00 | 24 | 1021.7 |
| 20260906012616 | 69 | 204 | 2.0 | 7.0 | 0.00 | 0.00 | 0.00 | 23 | 1021.7 |
| 20260906011618 | 70 | 248 | 3.0 | 6.0 | 0.00 | 0.00 | 0.00 | 22 | 1021.8 |
| 20260906010622 | 71 | 230 | 3.0 | 7.0 | 0.00 | 0.00 | 0.00 | 21 | 1021.8 |
| 20260906005628 | 71 | 234 | 1.0 | 8.0 | 0.00 | 0.00 | 0.00 | 21 | 1021.8 |
| 20260906004636 | 71 | 261 | 2.0 | 7.0 | 0.00 | 0.00 | 0.00 | 21 | 1021.7 |
| 20260906003618 | 71 | 207 | 1.0 | 10.0 | 0.00 | 0.00 | 0.00 | 21 | 1021.6 |
| 20260906002620 | 72 | 169 | 2.0 | 11.0 | 0.00 | 0.00 | 0.00 | 21 | 1021.5 |
| 20260906001644 | 72 | 262 | 5.0 | 9.0 | 0.00 | 0.00 | 0.00 | 21 | 1021.5 |
| 20260906000641 | 72 | 270 | 4.0 | 11.0 | 0.00 | 0.00 | 0.00 | 21 | 1021.6 |
| 20260905235627 | 72 | 268 | 6.0 | 11.0 | 0.00 | 0.00 | 0.00 | 21 | 1021.7 |
| 20260905234634 | 72 | 269 | 4.0 | 11.0 | 0.00 | 0.00 | 0.00 | 21 | 1021.5 |
| 20260905233617 | 72 | 303 | 7.0 | 14.0 | 0.00 | 0.00 | 0.00 | 22 | 1021.5 |
| 20260905232618 | 73 | 288 | 5.0 | 12.0 | 0.00 | 0.00 | 0.00 | 20 | 1021.4 |
| 20260905231620 | 73 | 355 | 2.0 | 13.0 | 0.00 | 0.00 | 0.00 | 21 | 1021.5 |